»·PEaware :: N6155V KNFG-KPSP

N6155V :: KNFG-KPSP

FLIGHT INFORMATION

Flight Status: Arrived
Operator: Privately registered:
United States
More flights under this callsign
Pilot: Jacob C. (16006)
Aircraft: Unknown
(G58)
More flights by this aircraft type
Origin: KNFG Camp Pendleton MCAS
United States
Destination: KPSP Palm Springs Intl
United States
More flights between these airports :: More routes between these airports
Route: OCN V208 JLI V208 TRM
File this flight plan on PilotEdge
Remarks:
Altitude:
(Current/Filed)
9,500ft
Speed:
(Current/Filed)
190kts
Departed: 19-Sep-20 11:18 AM
Arrived: 19-Sep-20 11:55 AM
Distance/Time
Traveled:
53nm/0:37
Distance/Time
To Go:
Arrived

Flight Plot

Page will automatically refresh every two minutes.

Flight plan parsing failed; only flown route is shown


Map Options




Map Legend


Flown Route
Filed Route
Departure Airport
Arrival Airport
Navaid (VOR, NDB)
Fix

Horizontal Profiles

Position Reports

Time Latitude Longitude Heading Altitude Ground
Speed
19-Sep-20 11:11 33.306389 -117.346158 43 80ft 0kts
19-Sep-20 11:12 33.306389 -117.346158 43 80ft 0kts
19-Sep-20 11:13 33.306389 -117.346158 43 80ft 0kts
19-Sep-20 11:14 33.306389 -117.346158 43 80ft 0kts
19-Sep-20 11:15 33.306389 -117.346158 43 80ft 0kts
19-Sep-20 11:16 33.306389 -117.346158 43 80ft 0kts
19-Sep-20 11:17 33.305551 -117.350185 223 81ft 54kts
19-Sep-20 11:18 33.277078 -117.380457 223 1125ft 170kts
19-Sep-20 11:19 33.239956 -117.412681 176 3210ft 156kts
19-Sep-20 11:20 33.232496 -117.369801 88 5825ft 147kts
19-Sep-20 11:21 33.229900 -117.323206 100 8415ft 132kts
19-Sep-20 11:22 33.223178 -117.270007 100 9382ft 192kts
19-Sep-20 11:23 33.215598 -117.204618 101 9422ft 199kts
19-Sep-20 11:24 33.207749 -117.139320 100 9421ft 199kts
19-Sep-20 11:25 33.199958 -117.074115 100 9416ft 196kts
19-Sep-20 11:26 33.192248 -117.009961 100 9412ft 196kts
19-Sep-20 11:27 33.184470 -116.945469 100 9410ft 195kts
19-Sep-20 11:28 33.176710 -116.881512 100 9410ft 194kts
19-Sep-20 11:29 33.169071 -116.818612 100 9412ft 188kts
19-Sep-20 11:30 33.161751 -116.758832 99 9406ft 177kts
19-Sep-20 11:31 33.154724 -116.701581 100 9399ft 173kts
19-Sep-20 11:32 33.147740 -116.644798 100 9405ft 173kts
19-Sep-20 11:33 33.144800 -116.588064 55 9391ft 175kts
19-Sep-20 11:34 33.181201 -116.550118 36 9390ft 176kts
19-Sep-20 11:35 33.221871 -116.515373 35 9386ft 180kts
19-Sep-20 11:36 33.262569 -116.479869 35 9386ft 181kts
19-Sep-20 11:37 33.303228 -116.444491 35 9382ft 181kts
19-Sep-20 11:38 33.343965 -116.408987 35 9372ft 182kts
19-Sep-20 11:39 33.385307 -116.372914 36 9136ft 189kts
19-Sep-20 11:40 33.428194 -116.335465 36 8642ft 191kts
19-Sep-20 11:41 33.471210 -116.297821 36 8125ft 190kts
19-Sep-20 11:42 33.514690 -116.259712 37 7041ft 198kts
19-Sep-20 11:43 33.558272 -116.221558 37 5537ft 192kts
19-Sep-20 11:44 33.601136 -116.183895 37 4372ft 179kts
19-Sep-20 11:45 33.640540 -116.176837 291 4374ft 163kts
19-Sep-20 11:46 33.664860 -116.223770 302 4367ft 165kts
19-Sep-20 11:47 33.693300 -116.271597 302 3492ft 180kts
19-Sep-20 11:48 33.721953 -116.320970 302 2495ft 180kts
19-Sep-20 11:49 33.748941 -116.367210 302 2373ft 154kts
19-Sep-20 11:51 33.772892 -116.408371 301 2379ft 149kts
19-Sep-20 11:52 33.797147 -116.450148 302 1981ft 162kts
19-Sep-20 11:53 33.809124 -116.486882 293 780ft 98kts
19-Sep-20 11:54 33.825880 -116.504340 323 421ft 41kts
19-Sep-20 11:55 33.827680 -116.507207 179 433ft 0kts
19-Sep-20 11:56 33.827680 -116.507207 179 433ft 0kts
19-Sep-20 11:57 33.828664 -116.509212 264 439ft 15kts
19-Sep-20 11:58 33.828947 -116.511101 195 441ft 0kts
19-Sep-20 11:59 33.828947 -116.511101 195 441ft 0kts
19-Sep-20 12:00 33.828947 -116.511101 195 441ft 0kts
19-Sep-20 12:01 33.828947 -116.511101 195 441ft 0kts
19-Sep-20 12:02 33.828947 -116.511101 195 441ft 0kts
19-Sep-20 12:03 33.828947 -116.511101 195 441ft 0kts
19-Sep-20 12:04 33.828947 -116.511101 195 441ft 0kts
19-Sep-20 12:05 33.828947 -116.511101 195 441ft 0kts
19-Sep-20 12:06 33.828947 -116.511101 195 441ft 0kts
19-Sep-20 12:07 33.828947 -116.511101 195 441ft 0kts
19-Sep-20 12:07 33.828947 -116.511101 195 441ft 0kts
19-Sep-20 12:08 33.828947 -116.511101 195 441ft 0kts

Navigation Log

Ident Type
Flight plan parsing failed, navigation log unavailable